SCFM

Capitan Fuentes Martinez Airport

Airport
ICAO code
SCFM
IATA Code
WPR
Summary
ICAO Region
CARSAM
ICAO Territory
Location

Porvenir, Magallanes y de la Antartica Chilena

Serving
Porvenir
Elevation
86 ft
Coordinates
53° 15' 13" S , 70° 19' 9" W
KCC
Metar
Observation
SCFM 272000Z 28014KT 9999 FEW030 BKN040 BKN090 14/06 Q1000
Station
CAPT FUENTES MAR
Date/Time
2023-01-27 20:00:00
Wind direction
280°
Wind speed
14 kts
Lowest cloud amount
few clouds
Temperature
14°C
Dew point
6°C
Humidity
58%
QNH
1000 hPa
Weather condition
n/a

Airport located near Porvenir, Magallanes y Antártica Chilena, Chile.

Climatology

Cool oceanic climate (Köppen climate classification Cfc)

Runways

Designator Length Width Surface Rops
3/21 797 30 GVL No/No
9/27 2500 30 ASP No/No

Airport map

Aerial View

SKYbrary Partners:

Safety knowledge contributed by: